Lookout, West Virginia
Current Conditions -  °F | °C
As of 7:58 AM on Thursday 18 Dec 2014 (Local Time) from KBKW Reporting Station
Overcast Overcast  
Wind Chill: 19°   Ceiling: 1400
Heat Index: 26°   Visibility: 10mi
Dew Point: 19°   Wind: 6mph
Humidity: 75%   Direction: 290°WNW
Pressure: 30.13"   Gusts: NA
Location:  38.06°N, 80.97°W
Report Text: KBKW 181258Z AUTO 29005KT 10SM OVC014 M03/M07 A3013 RMK AO2 T10331072
Loading
Personal Weather Stations






























Interactive Weather Map New forecast layout! Learn more

10-Day Weather Forecast

Advertisements
Track Severe Weather on mobile